Time,TemperatureF,DewpointF,PressureIn,WindDirection,WindDirectionDegrees,WindSpeedMPH,WindSpeedGustMPH,Humidity,HourlyPrecipIn,Conditions,Clouds,dailyrainin,SoftwareType,DateUTC
2013-06-24 00:33:00,72.0,20.0,-100.00,South,172,17.0,27.0,14,0.00,,,-99.99,,2013-06-24 00:33:00,
2013-06-24 00:42:00,72.0,20.0,-100.00,SSE,155,13.0,19.0,14,0.00,,,-99.99,,2013-06-24 00:42:00,
2013-06-24 00:52:00,71.0,22.0,-100.00,SSE,164,13.0,19.0,16,0.00,,,-99.99,,2013-06-24 00:52:00,
2013-06-24 01:01:00,71.0,22.0,-100.00,South,169,12.0,18.0,16,0.00,,,-99.99,,2013-06-24 01:01:00,
2013-06-24 01:32:00,71.0,23.0,-100.00,South,171,10.0,12.0,16,0.00,,,-99.99,,2013-06-24 01:32:00,
2013-06-24 01:42:00,71.0,24.0,-100.00,South,169,11.0,14.0,17,0.00,,,-99.99,,2013-06-24 01:42:00,
2013-06-24 02:01:00,71.0,23.0,-100.00,SSE,162,9.0,12.0,16,0.00,,,-99.99,,2013-06-24 02:01:00,
2013-06-24 02:11:00,70.0,23.0,-100.00,SSE,168,9.0,14.0,16,0.00,,,-99.99,,2013-06-24 02:11:00,
2013-06-24 02:33:00,68.0,25.0,-100.00,South,169,6.0,8.0,20,0.00,,,-99.99,,2013-06-24 02:33:00,
2013-06-24 02:42:00,67.0,25.0,-100.00,South,182,4.0,7.0,20,0.00,,,-99.99,,2013-06-24 02:42:00,
2013-06-24 02:53:00,66.0,26.0,-100.00,SE,140,3.0,6.0,22,0.00,,,-99.99,,2013-06-24 02:53:00,
2013-06-24 03:01:00,65.0,26.0,-100.00,SE,138,2.0,4.0,22,0.00,,,-99.99,,2013-06-24 03:01:00,
2013-06-24 03:33:00,62.0,27.0,-100.00,ESE,102,4.0,6.0,26,0.00,,,-99.99,,2013-06-24 03:33:00,
2013-06-24 03:43:00,61.0,26.0,-100.00,ESE,104,4.0,7.0,26,0.00,,,-99.99,,2013-06-24 03:43:00,
2013-06-24 04:02:00,61.0,24.0,-100.00,East,85,3.0,6.0,24,0.00,,,-99.99,,2013-06-24 04:02:00,
2013-06-24 04:22:00,63.0,22.0,-100.00,East,79,7.0,9.0,21,0.00,,,-99.99,,2013-06-24 04:22:00,
2013-06-24 04:33:00,63.0,20.0,-100.00,East,82,7.0,8.0,19,0.00,,,-99.99,,2013-06-24 04:33:00,
2013-06-24 04:43:00,59.0,23.0,-100.00,East,88,4.0,7.0,25,0.00,,,-99.99,,2013-06-24 04:43:00,
2013-06-24 04:52:00,58.0,24.0,-100.00,East,88,5.0,8.0,27,0.00,,,-99.99,,2013-06-24 04:52:00,
2013-06-24 05:02:00,57.0,23.0,-100.00,East,86,6.0,7.0,26,0.00,,,-99.99,,2013-06-24 05:02:00,
2013-06-24 05:22:00,57.0,23.0,-100.00,East,93,9.0,12.0,26,0.00,,,-99.99,,2013-06-24 05:22:00,
2013-06-24 05:35:00,57.0,23.0,-100.00,East,92,9.0,12.0,27,0.00,,,-99.99,,2013-06-24 05:35:00,
2013-06-24 05:53:00,57.0,23.0,-100.00,East,92,11.0,14.0,27,0.00,,,-99.99,,2013-06-24 05:53:00,
2013-06-24 06:05:00,57.0,23.0,-100.00,East,96,10.0,13.0,26,0.00,,,-99.99,,2013-06-24 06:05:00,
2013-06-24 06:43:00,57.0,24.0,-100.00,East,93,10.0,14.0,28,0.00,,,-99.99,,2013-06-24 06:43:00,
2013-06-24 07:03:00,58.0,25.0,-100.00,East,92,9.0,13.0,28,0.00,,,-99.99,,2013-06-24 07:03:00,
2013-06-24 07:46:00,57.0,27.0,-100.00,East,97,7.0,11.0,32,0.00,,,-99.99,,2013-06-24 07:46:00,
2013-06-24 07:53:00,56.0,28.0,-100.00,East,96,8.0,11.0,33,0.00,,,-99.99,,2013-06-24 07:53:00,
2013-06-24 08:03:00,57.0,27.0,-100.00,East,97,10.0,12.0,32,0.00,,,-99.99,,2013-06-24 08:03:00,
2013-06-24 08:25:00,60.0,27.0,-100.00,East,82,9.0,12.0,28,0.00,,,-99.99,,2013-06-24 08:25:00,
2013-06-24 08:45:00,57.0,27.0,-100.00,East,93,7.0,10.0,33,0.00,,,-99.99,,2013-06-24 08:45:00,
2013-06-24 08:52:00,57.0,28.0,-100.00,East,95,9.0,11.0,33,-99.99,,,-99.99,,2013-06-24 08:52:00,
2013-06-24 09:05:00,56.0,28.0,-100.00,ESE,102,10.0,12.0,33,0.00,,,-99.99,,2013-06-24 09:05:00,
2013-06-24 09:36:00,57.0,27.0,-100.00,East,95,9.0,12.0,31,0.00,,,-99.99,,2013-06-24 09:36:00,
2013-06-24 09:45:00,57.0,27.0,-100.00,East,96,9.0,11.0,31,0.00,,,-99.99,,2013-06-24 09:45:00,
2013-06-24 09:55:00,57.0,26.0,-100.00,East,95,9.0,12.0,30,0.00,,,-99.99,,2013-06-24 09:55:00,
2013-06-24 10:02:00,56.0,26.0,-100.00,East,96,9.0,11.0,32,0.00,,,-99.99,,2013-06-24 10:02:00,
2013-06-24 11:02:00,53.0,26.0,-100.00,East,99,7.0,9.0,34,0.00,,,-99.99,,2013-06-24 11:02:00,
2013-06-24 11:14:00,54.0,26.0,-100.00,East,99,9.0,10.0,34,0.00,,,-99.99,,2013-06-24 11:14:00,
2013-06-24 11:44:00,53.0,27.0,-100.00,East,95,7.0,10.0,36,0.00,,,-99.99,,2013-06-24 11:44:00,
2013-06-24 11:54:00,54.0,27.0,-100.00,East,97,9.0,11.0,35,0.00,,,-99.99,,2013-06-24 11:54:00,
2013-06-24 12:03:00,54.0,27.0,-100.00,East,93,9.0,11.0,36,0.00,,,-99.99,,2013-06-24 12:03:00,
2013-06-24 12:46:00,54.0,28.0,-100.00,East,100,6.0,8.0,36,0.00,,,-99.99,,2013-06-24 12:46:00,
2013-06-24 14:44:00,69.0,29.0,-100.00,SE,124,9.0,14.0,22,0.00,,,-99.99,,2013-06-24 14:44:00,
2013-06-24 15:12:00,71.0,26.0,-100.00,ESE,110,11.0,16.0,18,0.00,,,-99.99,,2013-06-24 15:12:00,
2013-06-24 15:45:00,72.0,21.0,-100.00,SSE,148,12.0,22.0,14,0.00,,,-99.99,,2013-06-24 15:45:00,
2013-06-24 15:54:00,72.0,19.0,-100.00,SSE,150,12.0,20.0,13,0.00,,,-99.99,,2013-06-24 15:54:00,
2013-06-24 16:43:00,72.0,19.0,-100.00,South,175,16.0,22.0,13,0.00,,,-99.99,,2013-06-24 16:43:00,
2013-06-24 17:44:00,73.0,23.0,-100.00,SSE,150,14.0,22.0,15,0.00,,,-99.99,,2013-06-24 17:44:00,
2013-06-24 18:02:00,72.0,21.0,-100.00,South,171,16.0,22.0,15,0.00,,,-99.99,,2013-06-24 18:02:00,
2013-06-24 18:14:00,74.0,22.0,-100.00,SE,144,16.0,24.0,14,0.00,,,-99.99,,2013-06-24 18:14:00,
2013-06-24 18:45:00,74.0,22.0,-100.00,SSE,164,22.0,28.0,14,0.00,,,-99.99,,2013-06-24 18:45:00,
2013-06-24 19:44:00,74.0,25.0,-100.00,SSE,152,17.0,26.0,16,0.00,,,-99.99,,2013-06-24 19:44:00,
2013-06-24 21:03:00,76.0,20.0,-100.00,South,169,23.0,33.0,12,0.00,,,-99.99,,2013-06-24 21:03:00,
2013-06-24 21:45:00,76.0,24.0,-100.00,SSE,161,21.0,32.0,14,0.00,,,-99.99,,2013-06-24 21:45:00,
2013-06-24 22:04:00,76.0,19.0,-100.00,SSE,162,22.0,32.0,12,0.00,,,-99.99,,2013-06-24 22:04:00,
2013-06-24 22:46:00,75.0,19.0,-100.00,South,169,20.0,39.0,12,0.00,,,-99.99,,2013-06-24 22:46:00,
2013-06-24 23:04:00,75.0,19.0,-100.00,SSE,164,23.0,33.0,12,0.00,,,-99.99,,2013-06-24 23:04:00,
2013-06-24 23:44:00,74.0,17.0,-100.00,SSE,157,19.0,27.0,11,0.00,,,-99.99,,2013-06-24 23:44:00,